createdAt,value
2018-07-26T01:00:30.935Z,7.60
2018-07-26T01:02:58.384Z,8.17
2018-07-26T01:05:25.827Z,8.97
2018-07-26T01:07:53.305Z,6.90
2018-07-26T01:10:20.732Z,6.40
2018-07-26T01:12:48.193Z,10.60
2018-07-26T01:15:15.692Z,6.63
2018-07-26T01:17:43.119Z,12.33
2018-07-26T01:20:10.579Z,8.20
2018-07-26T01:22:38.036Z,6.93
2018-07-26T01:25:05.507Z,10.57
2018-07-26T01:27:32.945Z,9.70
2018-07-26T01:30:00.408Z,6.70
2018-07-26T01:40:53.847Z,7.27
2018-07-26T01:43:57.863Z,9.30
2018-07-26T01:46:26.169Z,9.53
2018-07-26T01:48:53.595Z,6.60
2018-07-26T01:51:21.036Z,9.60
2018-07-26T01:53:48.495Z,8.20
2018-07-26T01:56:15.931Z,9.43
2018-07-26T01:58:43.348Z,9.30
2018-07-26T02:01:11.733Z,6.67
2018-07-26T02:03:39.581Z,8.83
2018-07-26T02:06:07.415Z,8.57
2018-07-26T02:08:34.860Z,8.73
2018-07-26T02:11:02.278Z,11.50
2018-07-26T02:13:30.567Z,9.90
2018-07-26T02:15:58.008Z,8.47
2018-07-26T02:18:25.435Z,7.70
2018-07-26T02:20:53.382Z,11.73
2018-07-26T02:23:20.996Z,8.43
2018-07-26T02:25:48.451Z,9.97
2018-07-26T02:28:15.917Z,9.67
2018-07-26T02:30:44.259Z,9.00
2018-07-26T02:33:11.771Z,15.57
2018-07-26T02:35:39.301Z,8.07
2018-07-26T02:38:07.145Z,8.87
2018-07-26T02:40:34.716Z,9.30
2018-07-26T02:43:02.252Z,9.10
2018-07-26T02:45:29.729Z,7.53
2018-07-26T02:47:57.150Z,10.87
2018-07-26T02:50:24.618Z,10.30
2018-07-26T02:52:52.057Z,8.17
2018-07-26T02:55:19.521Z,12.43
2018-07-26T02:57:46.972Z,9.90
2018-07-26T03:00:14.404Z,9.70
2018-07-26T03:02:41.865Z,9.33
2018-07-26T03:05:09.563Z,8.17
2018-07-26T03:07:36.987Z,15.53
2018-07-26T03:10:05.093Z,12.50
2018-07-26T03:12:32.547Z,8.83
2018-07-26T03:15:00.000Z,8.40
2018-07-26T03:17:27.524Z,8.73
2018-07-26T03:19:54.972Z,9.33
2018-07-26T03:22:22.470Z,11.37
2018-07-26T03:24:49.946Z,8.67
2018-07-26T03:27:17.440Z,9.73
2018-07-26T03:29:45.105Z,9.87
2018-07-26T03:32:12.584Z,10.50
2018-07-26T03:34:40.052Z,10.93
2018-07-26T03:37:07.519Z,11.73
2018-07-26T03:39:34.974Z,9.27
2018-07-26T03:42:02.456Z,10.33
2018-07-26T03:44:29.864Z,11.03
2018-07-26T03:46:57.945Z,11.33
2018-07-26T03:49:25.397Z,12.63
2018-07-26T03:51:52.920Z,12.77
2018-07-26T03:54:20.412Z,12.90
2018-07-26T03:56:47.869Z,11.57
2018-07-26T03:59:15.374Z,11.03
2018-07-26T04:01:42.803Z,11.77
2018-07-26T04:04:10.873Z,11.83
2018-07-26T04:06:38.518Z,15.17
2018-07-26T04:09:08.681Z,11.17
2018-07-26T04:11:36.226Z,16.90
2018-07-26T04:14:03.737Z,11.00
2018-07-26T04:16:31.255Z,12.57
2018-07-26T04:18:58.745Z,11.10
2018-07-26T04:21:26.241Z,12.00
2018-07-26T04:23:53.698Z,13.03
2018-07-26T04:26:21.240Z,14.33
2018-07-26T04:28:48.732Z,13.73
2018-07-26T04:31:16.213Z,13.23
2018-07-26T04:33:43.679Z,13.07
2018-07-26T04:36:11.160Z,10.83
2018-07-26T04:38:38.664Z,10.37
2018-07-26T04:41:06.082Z,12.33
2018-07-26T04:43:33.597Z,11.07
2018-07-26T04:46:01.090Z,12.40
2018-07-26T04:48:28.526Z,10.83
2018-07-26T04:50:55.952Z,24.20
2018-07-26T04:53:23.432Z,40.20
2018-07-26T04:55:50.870Z,11.90
2018-07-26T04:58:18.292Z,10.77
2018-07-26T05:00:45.729Z,11.43
2018-07-26T05:03:13.186Z,10.13
2018-07-26T05:05:40.611Z,9.50
2018-07-26T05:08:08.115Z,12.07
2018-07-26T05:10:35.523Z,11.23
2018-07-26T05:13:02.975Z,9.67
2018-07-26T05:15:30.432Z,10.20
2018-07-26T05:17:57.862Z,8.00
2018-07-26T05:20:25.286Z,9.47
2018-07-26T05:22:52.795Z,11.40
2018-07-26T05:25:20.236Z,9.97
2018-07-26T05:27:47.742Z,13.73
2018-07-26T05:30:15.157Z,9.67
2018-07-26T05:32:42.607Z,8.13
2018-07-26T05:35:10.153Z,11.43
2018-07-26T05:37:37.609Z,10.33
2018-07-26T05:40:05.170Z,8.17
2018-07-26T05:42:32.585Z,11.43
2018-07-26T05:45:00.054Z,8.80
2018-07-26T05:47:27.469Z,11.10
2018-07-26T05:49:54.912Z,10.67
2018-07-26T05:52:22.384Z,7.17
2018-07-26T05:54:49.808Z,8.77
2018-07-26T05:57:17.239Z,10.57
2018-07-26T05:59:44.843Z,8.27
2018-07-26T06:02:12.527Z,12.07
2018-07-26T06:04:40.043Z,12.90
2018-07-26T06:07:07.506Z,7.90
2018-07-26T06:09:34.995Z,14.63
2018-07-26T06:12:02.459Z,10.00
2018-07-26T06:14:29.880Z,8.07
2018-07-26T06:16:57.313Z,8.53
2018-07-26T06:19:24.756Z,11.60
2018-07-26T06:21:52.197Z,13.77
2018-07-26T06:24:19.658Z,14.03
2018-07-26T06:26:47.215Z,7.67
2018-07-26T06:29:14.676Z,12.13
2018-07-26T06:31:42.101Z,13.33
2018-07-26T06:34:09.538Z,8.83
2018-07-26T06:36:36.965Z,13.47
2018-07-26T06:39:08.047Z,11.47
2018-07-26T06:41:35.493Z,10.13
2018-07-26T06:44:02.968Z,12.00
2018-07-26T06:46:30.436Z,9.13
2018-07-26T06:48:57.871Z,12.93
2018-07-26T06:51:25.275Z,15.47
2018-07-26T06:53:52.705Z,10.67
2018-07-26T06:56:20.192Z,14.63
2018-07-26T06:58:47.624Z,12.27
2018-07-26T07:01:15.498Z,13.97
2018-07-26T07:03:42.938Z,17.40
2018-07-26T07:06:10.352Z,11.03
2018-07-26T07:08:37.803Z,11.70
2018-07-26T07:11:05.251Z,10.37
2018-07-26T07:13:32.728Z,9.43
2018-07-26T07:16:00.187Z,11.20
2018-07-26T07:18:27.651Z,15.53
2018-07-26T07:20:55.105Z,16.87
2018-07-26T07:23:22.547Z,8.53
2018-07-26T07:25:49.990Z,10.80
2018-07-26T07:28:17.418Z,12.43
2018-07-26T07:30:44.897Z,11.43
2018-07-26T07:33:12.332Z,14.27
2018-07-26T07:35:39.801Z,8.83
2018-07-26T07:38:07.292Z,14.00
2018-07-26T07:40:34.768Z,11.03
2018-07-26T07:43:02.199Z,9.23
2018-07-26T07:45:29.615Z,9.33
2018-07-26T07:47:57.048Z,10.20
2018-07-26T07:50:24.490Z,10.17
2018-07-26T07:52:51.997Z,12.00
2018-07-26T07:55:19.452Z,12.23
2018-07-26T07:57:47.024Z,15.63
2018-07-26T08:00:14.515Z,10.43
2018-07-26T08:02:42.046Z,14.07
2018-07-26T08:05:09.528Z,14.97
2018-07-26T08:07:37.037Z,16.67
2018-07-26T08:10:06.196Z,16.40
2018-07-26T08:12:33.654Z,11.80
2018-07-26T08:15:01.096Z,15.40
2018-07-26T08:17:28.542Z,15.33
2018-07-26T08:19:55.990Z,11.83
2018-07-26T08:22:23.459Z,11.00
2018-07-26T08:24:50.909Z,10.40
2018-07-26T08:27:18.393Z,11.53
2018-07-26T08:29:45.853Z,9.40
2018-07-26T08:32:13.315Z,8.87
2018-07-26T08:34:40.850Z,12.10
2018-07-26T08:37:08.348Z,9.73
2018-07-26T08:39:35.768Z,9.70
2018-07-26T08:42:03.227Z,13.03
2018-07-26T08:44:30.711Z,9.77
2018-07-26T08:46:58.194Z,7.77
2018-07-26T08:49:25.636Z,9.17
2018-07-26T08:51:53.079Z,13.73
2018-07-26T08:54:20.619Z,11.10
2018-07-26T08:56:48.170Z,10.37
2018-07-26T08:59:15.677Z,9.57
2018-07-26T09:01:43.118Z,15.43
2018-07-26T09:04:10.691Z,8.70
2018-07-26T09:06:38.200Z,9.70
2018-07-26T09:09:07.895Z,17.53
2018-07-26T09:11:35.503Z,12.80
2018-07-26T09:14:02.976Z,12.97
2018-07-26T09:16:30.480Z,9.40
2018-07-26T09:18:57.967Z,10.37
2018-07-26T09:21:25.617Z,10.63
2018-07-26T09:23:53.131Z,9.23
2018-07-26T09:26:20.689Z,9.07
2018-07-26T09:28:48.214Z,8.33
2018-07-26T09:31:15.718Z,15.40
2018-07-26T09:33:43.227Z,9.20
2018-07-26T09:36:10.711Z,11.83
2018-07-26T09:38:38.154Z,11.87
2018-07-26T09:41:05.735Z,12.67
2018-07-26T09:43:33.203Z,9.30
2018-07-26T09:46:00.659Z,11.17
2018-07-26T09:48:28.144Z,10.07
2018-07-26T09:50:55.634Z,10.03
2018-07-26T09:53:23.106Z,9.40
2018-07-26T09:55:50.632Z,11.57
2018-07-26T09:58:18.101Z,11.97
2018-07-26T10:00:51.319Z,12.63
2018-07-26T10:03:18.879Z,15.77
2018-07-26T10:05:46.311Z,11.87
2018-07-26T10:08:13.767Z,13.00
2018-07-26T10:10:41.239Z,13.67
2018-07-26T10:13:08.647Z,13.17
2018-07-26T10:15:36.113Z,12.30
2018-07-26T10:18:03.523Z,10.90
2018-07-26T10:20:30.971Z,9.17
2018-07-26T10:22:58.448Z,9.03
2018-07-26T10:25:26.069Z,9.70
2018-07-26T10:27:53.533Z,9.07
2018-07-26T10:30:20.946Z,8.93
2018-07-26T10:32:48.446Z,9.10
2018-07-26T10:35:15.900Z,10.70
2018-07-26T10:37:43.389Z,9.30
2018-07-26T10:40:10.842Z,9.37
2018-07-26T10:42:38.320Z,8.60
2018-07-26T10:45:05.763Z,7.10
2018-07-26T10:47:33.225Z,13.17
2018-07-26T10:50:00.762Z,7.90
2018-07-26T10:52:28.121Z,11.53
2018-07-26T10:54:55.578Z,9.07
2018-07-26T10:57:23.027Z,9.93
2018-07-26T10:59:50.472Z,6.60
2018-07-26T11:02:17.921Z,7.97
2018-07-26T11:04:45.343Z,5.80
2018-07-26T11:07:12.788Z,7.43
2018-07-26T11:09:40.294Z,5.87
2018-07-26T11:12:07.744Z,7.63
2018-07-26T11:14:35.208Z,7.00
2018-07-26T11:17:02.672Z,7.57
2018-07-26T11:19:30.148Z,9.53
2018-07-26T11:21:57.649Z,7.40
2018-07-26T11:24:25.139Z,9.97
2018-07-26T11:26:52.688Z,7.60
2018-07-26T11:29:20.271Z,6.80
2018-07-26T11:31:47.752Z,6.33
2018-07-26T11:34:15.259Z,5.97
2018-07-26T11:36:42.745Z,7.13
2018-07-26T11:39:11.088Z,6.10
2018-07-26T11:41:38.562Z,7.07
2018-07-26T11:44:06.559Z,6.73
2018-07-26T11:46:34.068Z,8.43
2018-07-26T11:49:01.560Z,7.47
2018-07-26T11:51:29.073Z,4.97
2018-07-26T11:53:56.803Z,5.67
2018-07-26T11:56:24.287Z,9.07
2018-07-26T11:58:51.784Z,6.73
2018-07-26T12:01:19.270Z,5.50
2018-07-26T12:03:46.739Z,6.67
2018-07-26T12:06:14.251Z,4.83
2018-07-26T12:08:41.700Z,9.23
2018-07-26T12:11:09.176Z,6.70
2018-07-26T12:13:36.729Z,8.93
2018-07-26T12:16:04.187Z,6.17
2018-07-26T12:18:31.724Z,8.57
2018-07-26T12:20:59.213Z,9.90
2018-07-26T12:23:26.670Z,7.40
2018-07-26T12:25:54.146Z,7.17
2018-07-26T12:28:21.705Z,6.03
2018-07-26T12:30:49.176Z,9.63
2018-07-26T12:33:16.857Z,8.30
2018-07-26T12:35:44.418Z,6.30
2018-07-26T12:38:11.883Z,4.53
2018-07-26T12:40:39.363Z,4.87
2018-07-26T12:43:06.864Z,7.33
2018-07-26T12:45:34.367Z,7.93
2018-07-26T12:48:01.852Z,7.73
2018-07-26T12:50:29.383Z,8.47
2018-07-26T12:52:56.899Z,6.40
2018-07-26T12:55:24.401Z,4.83
2018-07-26T12:57:52.017Z,5.77
2018-07-26T13:00:19.500Z,6.53
2018-07-26T13:02:47.072Z,5.57
2018-07-26T13:05:14.536Z,7.63
2018-07-26T13:07:42.024Z,6.00
2018-07-26T13:10:09.516Z,4.93
2018-07-26T13:12:36.972Z,6.67
2018-07-26T13:15:04.826Z,5.67
2018-07-26T13:17:32.325Z,6.90
2018-07-26T13:19:59.791Z,6.77
2018-07-26T13:22:27.246Z,5.33
2018-07-26T13:24:54.716Z,4.93
2018-07-26T13:27:22.185Z,5.57
2018-07-26T13:29:49.701Z,4.27
2018-07-26T13:32:17.152Z,8.40
2018-07-26T13:34:44.643Z,8.27
2018-07-26T13:37:12.160Z,5.33
2018-07-26T13:39:39.631Z,5.47
2018-07-26T13:42:07.105Z,4.57
2018-07-26T13:44:34.588Z,6.57
2018-07-26T13:47:02.041Z,5.07
2018-07-26T13:49:29.523Z,4.97
2018-07-26T13:51:57.039Z,8.03
2018-07-26T13:54:24.527Z,5.23
2018-07-26T13:56:52.375Z,6.70
2018-07-26T13:59:19.488Z,8.63
2018-07-26T14:01:47.004Z,8.43
2018-07-26T14:04:14.460Z,5.10
2018-07-26T14:06:41.940Z,4.97
2018-07-26T14:09:10.704Z,5.00
2018-07-26T14:11:38.190Z,6.70
2018-07-26T14:14:06.246Z,5.00
2018-07-26T14:16:33.731Z,6.70
2018-07-26T14:19:01.240Z,6.47
2018-07-26T14:21:28.772Z,6.73
2018-07-26T14:23:57.109Z,7.47
2018-07-26T14:26:24.621Z,6.53
2018-07-26T14:28:52.145Z,6.10
2018-07-26T14:31:19.645Z,8.57
2018-07-26T14:33:47.133Z,4.43
2018-07-26T14:36:14.649Z,5.33
2018-07-26T14:38:42.079Z,7.47
2018-07-26T14:41:09.601Z,8.80
2018-07-26T14:43:37.174Z,7.23
2018-07-26T14:46:04.646Z,8.20
2018-07-26T14:48:32.160Z,6.63
2018-07-26T14:50:59.638Z,9.10
2018-07-26T14:53:27.160Z,7.63
2018-07-26T14:55:54.658Z,7.33
2018-07-26T14:58:22.172Z,6.17
2018-07-26T15:00:49.692Z,6.43
2018-07-26T15:03:17.208Z,5.87
2018-07-26T15:05:44.666Z,6.63
2018-07-26T15:08:12.202Z,4.93
2018-07-26T15:10:39.674Z,7.60
2018-07-26T15:13:07.140Z,6.87
2018-07-26T15:15:34.619Z,5.70
2018-07-26T15:18:02.171Z,6.93
2018-07-26T15:20:29.727Z,6.83
2018-07-26T15:22:57.167Z,5.50
2018-07-26T15:25:25.852Z,9.63
2018-07-26T15:27:54.505Z,10.30
2018-07-26T15:30:22.567Z,8.33
2018-07-26T15:32:50.414Z,6.97
2018-07-26T15:35:18.146Z,4.90
2018-07-26T15:37:45.956Z,7.57
2018-07-26T15:40:13.422Z,10.53
2018-07-26T15:42:40.884Z,10.20
2018-07-26T15:45:08.457Z,5.27
2018-07-26T15:47:35.931Z,6.00
2018-07-26T15:50:03.692Z,7.63
2018-07-26T15:52:31.207Z,5.63
2018-07-26T15:54:58.716Z,7.83
2018-07-26T15:57:26.201Z,6.57
2018-07-26T15:59:53.686Z,8.07
2018-07-26T16:02:21.170Z,6.57
2018-07-26T16:04:48.643Z,7.77
2018-07-26T16:07:16.102Z,7.10
2018-07-26T16:09:43.548Z,6.10
2018-07-26T16:12:11.097Z,7.47
2018-07-26T16:14:38.668Z,8.77
2018-07-26T16:17:06.169Z,5.77
2018-07-26T16:19:33.648Z,5.73
2018-07-26T16:22:01.295Z,7.17
2018-07-26T16:24:28.728Z,8.43
2018-07-26T16:26:56.225Z,8.03
2018-07-26T16:29:23.685Z,6.67
2018-07-26T16:31:51.159Z,10.73
2018-07-26T16:34:18.659Z,7.40
2018-07-26T16:36:46.142Z,7.00
2018-07-26T16:39:13.611Z,9.00
2018-07-26T16:41:41.091Z,6.57
2018-07-26T16:44:08.595Z,7.47
2018-07-26T16:46:36.324Z,6.33
2018-07-26T16:49:04.148Z,6.37
2018-07-26T16:51:31.601Z,5.63
2018-07-26T16:53:59.032Z,6.23
2018-07-26T16:56:26.487Z,6.67
2018-07-26T16:58:54.008Z,7.97
2018-07-26T17:01:21.528Z,6.20
2018-07-26T17:03:49.062Z,5.83
2018-07-26T17:06:16.512Z,8.93
2018-07-26T17:08:43.946Z,8.73
2018-07-26T17:11:11.419Z,9.20
2018-07-26T17:13:38.898Z,12.10
2018-07-26T17:16:06.380Z,9.87
2018-07-26T17:18:33.916Z,7.17
2018-07-26T17:21:01.430Z,6.63
2018-07-26T17:23:28.938Z,6.60
2018-07-26T17:25:56.432Z,9.43
2018-07-26T17:28:23.924Z,6.53
2018-07-26T17:30:51.402Z,13.97
2018-07-26T17:33:18.870Z,10.03
2018-07-26T17:35:46.478Z,6.43
2018-07-26T17:38:13.917Z,9.60
2018-07-26T17:40:41.400Z,6.70
2018-07-26T17:43:09.109Z,10.83
2018-07-26T17:45:36.714Z,6.47
2018-07-26T17:48:04.732Z,6.67
2018-07-26T17:50:32.188Z,6.53
2018-07-26T17:52:59.708Z,5.80
2018-07-26T17:55:27.153Z,6.07
2018-07-26T17:57:54.592Z,8.60
2018-07-26T18:00:22.069Z,8.97
2018-07-26T18:02:49.515Z,8.03
2018-07-26T18:05:16.995Z,6.07
2018-07-26T18:07:44.464Z,6.20
2018-07-26T18:10:11.935Z,7.10
2018-07-26T18:12:39.480Z,9.10
2018-07-26T18:15:07.561Z,8.53
2018-07-26T18:17:35.037Z,6.87
2018-07-26T18:20:02.587Z,8.17
2018-07-26T18:22:30.076Z,7.43
2018-07-26T18:24:57.571Z,7.60
2018-07-26T18:27:25.077Z,9.47
2018-07-26T18:29:52.535Z,7.57
2018-07-26T18:32:20.023Z,12.73
2018-07-26T18:34:47.515Z,10.17
2018-07-26T18:37:15.080Z,9.27
2018-07-26T18:39:42.550Z,13.73
2018-07-26T18:42:10.052Z,7.27
2018-07-26T18:44:37.539Z,7.87
2018-07-26T18:47:05.043Z,8.77
2018-07-26T18:49:32.553Z,9.30
2018-07-26T18:52:00.000Z,9.27
2018-07-26T18:54:27.499Z,9.43
2018-07-26T18:56:54.997Z,10.70
2018-07-26T18:59:22.463Z,10.00
2018-07-26T19:01:49.924Z,9.00
2018-07-26T19:04:17.456Z,6.07
2018-07-26T19:06:44.935Z,7.20
2018-07-26T19:09:12.636Z,6.27
2018-07-26T19:11:40.830Z,7.37
2018-07-26T19:14:08.258Z,4.93
2018-07-26T19:16:35.724Z,6.17
2018-07-26T19:19:03.274Z,6.10
2018-07-26T19:21:30.731Z,6.67
2018-07-26T19:23:58.231Z,7.37
2018-07-26T19:26:25.734Z,12.30
2018-07-26T19:28:53.206Z,6.97
2018-07-26T19:31:20.674Z,6.57
2018-07-26T19:33:48.180Z,7.23
2018-07-26T19:36:15.835Z,6.23
2018-07-26T19:38:43.364Z,9.47
2018-07-26T19:41:10.835Z,8.10
2018-07-26T19:43:38.304Z,9.10
2018-07-26T19:46:05.793Z,12.00
2018-07-26T19:48:33.263Z,9.47
2018-07-26T19:51:01.038Z,13.10
2018-07-26T19:53:28.571Z,14.07
2018-07-26T19:55:56.115Z,10.40
2018-07-26T19:58:23.603Z,11.50
2018-07-26T20:00:51.107Z,11.00
2018-07-26T20:03:19.487Z,12.43
2018-07-26T20:05:46.970Z,9.27
2018-07-26T20:08:14.476Z,11.43
2018-07-26T20:10:41.973Z,10.60
2018-07-26T20:13:09.464Z,10.67
2018-07-26T20:15:36.942Z,10.33
2018-07-26T20:18:04.468Z,11.57
2018-07-26T20:20:31.924Z,13.20
2018-07-26T20:22:59.451Z,15.13
2018-07-26T20:25:26.932Z,15.70
2018-07-26T20:27:54.414Z,11.07
2018-07-26T20:30:21.877Z,13.17
2018-07-26T20:32:49.387Z,14.60
2018-07-26T20:35:16.860Z,13.50
2018-07-26T20:37:44.351Z,14.47
2018-07-26T20:40:11.811Z,12.33
2018-07-26T20:42:39.336Z,12.77
2018-07-26T20:45:08.270Z,13.77
2018-07-26T20:47:35.797Z,16.20
2018-07-26T20:50:04.225Z,13.80
2018-07-26T20:52:31.748Z,17.20
2018-07-26T20:54:59.835Z,12.20
2018-07-26T20:57:27.344Z,17.77
2018-07-26T20:59:54.875Z,11.60
2018-07-26T21:02:22.429Z,15.57
2018-07-26T21:04:49.855Z,13.57
2018-07-26T21:07:17.417Z,14.97
2018-07-26T21:09:44.952Z,12.03
2018-07-26T21:12:12.464Z,12.63
2018-07-26T21:14:39.906Z,13.90
2018-07-26T21:17:08.457Z,18.23
2018-07-26T21:19:35.935Z,11.97
2018-07-26T21:22:03.468Z,12.60
2018-07-26T21:24:30.927Z,12.73
2018-07-26T21:26:58.447Z,9.63
2018-07-26T21:29:25.945Z,11.90
2018-07-26T21:31:53.475Z,14.97
2018-07-26T21:34:20.949Z,11.20
2018-07-26T21:36:48.431Z,10.10
2018-07-26T21:39:15.886Z,12.90
2018-07-26T21:41:43.410Z,13.27
2018-07-26T21:44:10.908Z,15.47
2018-07-26T21:46:38.386Z,12.50
2018-07-26T21:49:06.198Z,12.40
2018-07-26T21:51:33.708Z,17.43
2018-07-26T21:54:01.191Z,12.73
2018-07-26T21:56:28.701Z,14.00
2018-07-26T21:58:56.153Z,16.83
2018-07-26T22:01:23.630Z,16.20
2018-07-26T22:03:51.480Z,16.50
2018-07-26T22:06:18.993Z,17.03
2018-07-26T22:11:23.801Z,16.90
2018-07-26T22:13:51.488Z,15.93
2018-07-26T22:16:18.956Z,21.77
2018-07-26T22:18:46.534Z,17.87
2018-07-26T22:21:14.402Z,16.27
2018-07-26T22:23:43.167Z,15.73
2018-07-26T22:26:11.019Z,16.80
2018-07-26T22:28:38.637Z,20.20
2018-07-26T22:31:06.127Z,16.33
2018-07-26T22:33:33.855Z,17.07
2018-07-26T22:36:01.321Z,17.37
2018-07-26T22:38:28.817Z,13.50
2018-07-26T22:40:56.291Z,14.20
2018-07-26T22:43:23.903Z,17.33
2018-07-26T22:45:51.635Z,18.80
2018-07-26T22:48:19.172Z,15.83
2018-07-26T22:50:46.724Z,16.60
2018-07-26T22:53:14.253Z,16.33
2018-07-26T22:55:41.776Z,15.40
2018-07-26T22:58:09.277Z,17.73
2018-07-26T23:00:36.744Z,16.90
2018-07-26T23:03:04.245Z,16.43
2018-07-26T23:05:31.731Z,17.27
2018-07-26T23:07:59.228Z,15.63
2018-07-26T23:10:26.692Z,21.13
2018-07-26T23:12:54.219Z,16.23
2018-07-26T23:15:21.714Z,17.30
2018-07-26T23:17:49.188Z,16.43
2018-07-26T23:20:16.724Z,16.83
2018-07-26T23:22:44.243Z,17.40
2018-07-26T23:25:11.705Z,18.20
2018-07-26T23:27:39.167Z,18.63
2018-07-26T23:30:10.876Z,18.63
2018-07-26T23:32:38.402Z,17.50
2018-07-26T23:35:06.095Z,17.10
2018-07-26T23:37:33.614Z,16.03
2018-07-26T23:40:01.071Z,17.90
2018-07-26T23:42:28.659Z,16.93
2018-07-26T23:44:56.108Z,17.20
2018-07-26T23:47:23.560Z,16.97
2018-07-26T23:49:51.030Z,16.43
2018-07-26T23:52:18.564Z,16.20
2018-07-26T23:54:46.026Z,16.43
2018-07-26T23:57:13.495Z,14.17
2018-07-26T23:59:40.942Z,13.80
